createdAt,value
2018-12-31T00:01:40.320Z,22.23
2018-12-31T00:04:09.471Z,30.10
2018-12-31T00:06:38.559Z,23.77
2018-12-31T00:09:07.712Z,24.93
2018-12-31T00:11:36.597Z,25.90
2018-12-31T00:14:05.568Z,22.60
2018-12-31T00:16:34.371Z,27.40
2018-12-31T00:19:03.572Z,25.77
2018-12-31T00:21:32.481Z,26.70
2018-12-31T00:24:01.327Z,25.53
2018-12-31T00:26:30.179Z,22.83
2018-12-31T00:28:59.418Z,26.13
2018-12-31T00:31:28.267Z,25.60
2018-12-31T00:33:57.132Z,26.20
2018-12-31T00:36:26.305Z,24.77
2018-12-31T00:38:55.186Z,24.53
2018-12-31T00:41:24.295Z,32.13
2018-12-31T00:43:53.125Z,28.03
2018-12-31T00:46:21.955Z,30.77
2018-12-31T00:48:50.811Z,25.07
2018-12-31T00:51:19.704Z,26.20
2018-12-31T00:53:48.522Z,28.67
2018-12-31T00:56:17.438Z,23.47
2018-12-31T00:58:46.604Z,26.10
2018-12-31T01:01:15.416Z,21.63
2018-12-31T01:03:44.732Z,22.50
2018-12-31T01:06:13.856Z,20.93
2018-12-31T01:08:42.736Z,27.80
2018-12-31T01:11:11.542Z,25.17
2018-12-31T01:13:40.373Z,18.07
2018-12-31T01:16:09.260Z,20.93
2018-12-31T01:18:38.085Z,20.50
2018-12-31T01:21:07.160Z,18.70
2018-12-31T01:23:36.031Z,21.00
2018-12-31T01:26:05.065Z,21.60
2018-12-31T01:28:33.889Z,19.40
2018-12-31T01:31:02.719Z,22.00
2018-12-31T01:33:32.164Z,23.20
2018-12-31T01:36:01.299Z,24.03
2018-12-31T01:38:30.124Z,25.33
2018-12-31T01:40:58.977Z,21.17
2018-12-31T01:43:27.859Z,22.93
2018-12-31T01:45:56.740Z,21.03
2018-12-31T01:48:25.632Z,22.47
2018-12-31T01:50:54.435Z,19.37
2018-12-31T01:53:23.365Z,22.17
2018-12-31T01:55:52.520Z,25.60
2018-12-31T01:58:21.350Z,23.00
2018-12-31T02:00:50.273Z,26.00
2018-12-31T02:03:19.119Z,27.63
2018-12-31T02:05:47.936Z,20.73
2018-12-31T02:08:17.093Z,25.80
2018-12-31T02:10:46.004Z,21.30
2018-12-31T02:13:14.925Z,23.40
2018-12-31T02:15:43.725Z,25.70
2018-12-31T02:18:12.787Z,25.93
2018-12-31T02:20:41.615Z,19.87
2018-12-31T02:23:10.424Z,21.23
2018-12-31T02:25:39.342Z,17.30
2018-12-31T02:28:08.173Z,20.87
2018-12-31T02:30:37.084Z,20.77
2018-12-31T02:33:05.943Z,19.67
2018-12-31T02:35:34.746Z,15.00
2018-12-31T02:38:03.643Z,11.57
2018-12-31T02:40:32.502Z,17.70
2018-12-31T02:43:01.284Z,14.93
2018-12-31T02:45:30.260Z,12.83
2018-12-31T02:47:59.060Z,13.33
2018-12-31T02:50:28.096Z,15.93
2018-12-31T02:52:56.968Z,11.63
2018-12-31T02:55:25.808Z,12.87
2018-12-31T02:57:54.623Z,7.70
2018-12-31T03:00:23.534Z,10.80
2018-12-31T03:02:52.519Z,9.70
2018-12-31T03:05:21.463Z,11.50
2018-12-31T03:07:50.571Z,12.80
2018-12-31T03:10:19.389Z,11.10
2018-12-31T03:12:48.218Z,12.57
2018-12-31T03:15:17.207Z,11.13
2018-12-31T03:17:46.011Z,7.33
2018-12-31T03:20:14.811Z,9.33
2018-12-31T03:22:43.976Z,10.70
2018-12-31T03:25:12.872Z,8.67
2018-12-31T03:27:42.235Z,9.53
2018-12-31T03:30:11.395Z,9.30
2018-12-31T03:32:40.197Z,10.60
2018-12-31T03:35:09.142Z,10.23
2018-12-31T03:37:37.980Z,12.23
2018-12-31T03:40:06.961Z,13.10
2018-12-31T03:42:35.799Z,9.63
2018-12-31T03:45:05.437Z,12.03
2018-12-31T03:47:34.236Z,9.87
2018-12-31T03:50:03.268Z,12.57
2018-12-31T03:52:32.090Z,14.00
2018-12-31T03:55:00.895Z,14.97
2018-12-31T03:57:29.751Z,17.57
2018-12-31T03:59:58.582Z,14.27
2018-12-31T04:02:27.376Z,17.87
2018-12-31T04:04:56.255Z,17.07
2018-12-31T04:07:25.128Z,21.63
2018-12-31T04:09:54.304Z,16.43
2018-12-31T04:12:23.196Z,16.83
2018-12-31T04:14:52.333Z,18.33
2018-12-31T04:17:21.136Z,18.90
2018-12-31T04:19:50.311Z,19.63
2018-12-31T04:22:19.156Z,18.77
2018-12-31T04:24:47.960Z,22.50
2018-12-31T04:27:16.793Z,20.87
2018-12-31T04:29:45.828Z,25.63
2018-12-31T04:32:14.806Z,18.37
2018-12-31T04:34:43.627Z,18.10
2018-12-31T04:37:12.416Z,25.57
2018-12-31T04:39:41.319Z,20.40
2018-12-31T04:42:10.506Z,23.93
2018-12-31T04:44:39.472Z,29.67
2018-12-31T04:47:08.279Z,30.37
2018-12-31T04:49:37.099Z,26.43
2018-12-31T04:52:06.093Z,42.97
2018-12-31T04:55:00.631Z,28.10
2018-12-31T04:57:29.626Z,27.87
2018-12-31T04:59:58.424Z,33.40
2018-12-31T05:02:27.322Z,31.80
2018-12-31T05:04:56.182Z,24.87
2018-12-31T05:07:25.028Z,39.23
2018-12-31T05:09:53.965Z,28.27
2018-12-31T05:12:22.758Z,27.33
2018-12-31T05:14:52.344Z,32.23
2018-12-31T05:17:21.225Z,32.47
2018-12-31T05:19:50.024Z,37.10
2018-12-31T05:22:18.931Z,31.70
2018-12-31T05:24:47.743Z,30.70
2018-12-31T05:27:16.711Z,43.83
2018-12-31T05:29:46.289Z,37.50
2018-12-31T05:32:15.087Z,35.67
2018-12-31T05:34:44.304Z,37.93
2018-12-31T05:37:13.156Z,38.47
2018-12-31T05:39:42.263Z,42.23
2018-12-31T05:42:11.373Z,44.43
2018-12-31T05:44:40.247Z,37.93
2018-12-31T05:47:09.084Z,40.20
2018-12-31T05:49:38.189Z,43.90
2018-12-31T05:52:06.999Z,35.03
2018-12-31T05:54:36.131Z,41.03
2018-12-31T05:57:05.202Z,36.20
2018-12-31T05:59:33.997Z,43.20
2018-12-31T06:02:02.935Z,36.30
2018-12-31T06:04:31.784Z,39.67
2018-12-31T06:07:00.583Z,42.80
2018-12-31T06:09:30.023Z,36.63
2018-12-31T06:11:58.831Z,38.20
2018-12-31T06:14:27.819Z,48.00
2018-12-31T06:16:56.823Z,39.60
2018-12-31T06:19:25.938Z,36.40
2018-12-31T06:21:54.744Z,38.03
2018-12-31T06:24:23.583Z,40.40
2018-12-31T06:26:52.748Z,41.80
2018-12-31T06:29:21.719Z,33.80
2018-12-31T06:31:50.542Z,36.70
2018-12-31T06:34:19.483Z,36.30
2018-12-31T06:36:48.353Z,38.00
2018-12-31T06:39:17.311Z,41.03
2018-12-31T06:41:46.530Z,38.03
2018-12-31T06:44:15.326Z,38.17
2018-12-31T06:46:44.199Z,46.97
2018-12-31T06:49:14.210Z,44.50
2018-12-31T06:51:43.259Z,40.97
2018-12-31T06:54:12.303Z,49.47
2018-12-31T06:56:41.438Z,41.53
2018-12-31T06:59:10.487Z,38.33
2018-12-31T07:01:39.288Z,39.33
2018-12-31T07:04:08.257Z,34.93
2018-12-31T07:06:37.136Z,37.43
2018-12-31T07:09:07.030Z,39.60
2018-12-31T07:11:36.492Z,47.50
2018-12-31T07:14:05.370Z,46.20
2018-12-31T07:16:34.213Z,38.50
2018-12-31T07:19:03.737Z,42.43
2018-12-31T07:21:32.539Z,46.53
2018-12-31T07:24:02.336Z,45.50
2018-12-31T07:26:31.139Z,46.00
2018-12-31T07:29:00.015Z,53.00
2018-12-31T07:31:28.943Z,63.90
2018-12-31T07:33:57.765Z,63.73
2018-12-31T07:36:26.565Z,64.00
2018-12-31T07:38:56.525Z,75.70
2018-12-31T07:41:25.780Z,64.63
2018-12-31T07:43:54.707Z,66.93
2018-12-31T07:46:24.867Z,69.37
2018-12-31T07:48:53.764Z,73.17
2018-12-31T07:51:22.568Z,77.67
2018-12-31T07:53:51.409Z,83.50
2018-12-31T07:56:20.801Z,80.53
2018-12-31T07:58:50.096Z,84.77
2018-12-31T08:01:19.080Z,82.67
2018-12-31T08:03:48.231Z,76.90
2018-12-31T08:06:17.332Z,86.23
2018-12-31T08:08:46.508Z,88.97
2018-12-31T08:11:15.477Z,92.20
2018-12-31T08:13:44.907Z,102.03
2018-12-31T08:16:13.710Z,93.50
2018-12-31T08:18:42.736Z,107.57
2018-12-31T08:21:11.592Z,89.70
2018-12-31T08:23:40.490Z,80.97
2018-12-31T08:26:09.317Z,102.70
2018-12-31T08:28:38.162Z,88.97
2018-12-31T08:31:07.048Z,80.03
2018-12-31T08:33:36.499Z,83.07
2018-12-31T08:36:05.373Z,91.33
2018-12-31T08:38:34.787Z,82.70
2018-12-31T08:41:03.904Z,87.23
2018-12-31T08:43:32.711Z,86.63
2018-12-31T08:46:01.498Z,81.30
2018-12-31T08:48:30.718Z,99.80
2018-12-31T08:50:59.716Z,81.70
2018-12-31T08:53:28.950Z,82.10
2018-12-31T08:55:58.283Z,91.23
2018-12-31T08:58:27.063Z,85.80
2018-12-31T09:00:55.873Z,115.73
2018-12-31T09:03:24.762Z,81.87
2018-12-31T09:05:53.641Z,86.13
2018-12-31T09:08:22.532Z,111.10
2018-12-31T09:10:51.736Z,93.13
2018-12-31T09:13:20.547Z,99.57
2018-12-31T09:15:51.244Z,82.37
2018-12-31T09:18:20.039Z,90.70
2018-12-31T09:20:48.841Z,103.87
2018-12-31T09:23:18.022Z,87.13
2018-12-31T09:25:47.512Z,98.70
2018-12-31T09:28:16.421Z,103.80
2018-12-31T09:30:45.729Z,92.33
2018-12-31T09:33:14.695Z,86.03
2018-12-31T09:35:43.647Z,88.60
2018-12-31T09:38:12.884Z,102.63
2018-12-31T09:40:41.983Z,103.50
2018-12-31T09:43:10.771Z,89.60
2018-12-31T09:45:39.741Z,103.77
2018-12-31T09:48:08.695Z,104.43
2018-12-31T09:50:37.627Z,97.90
2018-12-31T09:53:06.672Z,110.47
2018-12-31T09:55:35.504Z,94.27
2018-12-31T09:58:04.439Z,100.00
2018-12-31T10:00:34.156Z,113.33
2018-12-31T10:03:03.559Z,87.77
2018-12-31T10:05:32.448Z,97.17
2018-12-31T10:08:01.392Z,77.50
2018-12-31T10:10:30.202Z,126.67
2018-12-31T10:12:59.017Z,94.43
2018-12-31T10:15:28.390Z,103.53
2018-12-31T10:17:58.235Z,94.07
2018-12-31T10:20:27.049Z,84.90
2018-12-31T10:22:56.170Z,88.70
2018-12-31T10:25:25.731Z,79.57
2018-12-31T10:27:54.527Z,91.40
2018-12-31T10:30:23.409Z,75.13
2018-12-31T10:32:53.109Z,93.03
2018-12-31T10:35:22.237Z,85.20
2018-12-31T10:37:51.406Z,93.33
2018-12-31T10:40:20.295Z,98.77
2018-12-31T10:42:49.101Z,99.47
2018-12-31T10:45:18.357Z,98.90
2018-12-31T10:47:47.699Z,108.40
2018-12-31T10:50:16.510Z,107.90
2018-12-31T10:52:45.307Z,95.70
2018-12-31T10:55:14.455Z,104.70
2018-12-31T10:57:43.267Z,100.83
2018-12-31T11:00:12.348Z,82.70
2018-12-31T11:02:41.353Z,93.33
2018-12-31T11:05:10.228Z,93.67
2018-12-31T11:07:39.080Z,92.80
2018-12-31T11:10:08.410Z,99.93
2018-12-31T11:12:37.612Z,111.57
2018-12-31T11:15:07.133Z,100.93
2018-12-31T11:17:36.214Z,86.50
2018-12-31T11:20:05.331Z,99.83
2018-12-31T11:22:34.296Z,123.30
2018-12-31T11:25:03.423Z,93.10
2018-12-31T11:27:32.614Z,108.33
2018-12-31T11:30:01.780Z,97.23
2018-12-31T11:32:30.647Z,78.07
2018-12-31T11:34:59.676Z,93.47
2018-12-31T11:37:34.493Z,91.43
2018-12-31T11:40:00.828Z,102.03
2018-12-31T11:42:30.667Z,88.40
2018-12-31T11:44:59.670Z,102.70
2018-12-31T11:47:28.453Z,78.93
2018-12-31T11:49:59.627Z,102.50
2018-12-31T11:52:28.415Z,98.70
2018-12-31T11:54:57.292Z,92.93
2018-12-31T11:57:26.373Z,110.63
2018-12-31T11:59:55.470Z,87.60
2018-12-31T12:02:24.284Z,107.53
2018-12-31T12:04:53.225Z,101.73
2018-12-31T12:07:22.389Z,101.37
2018-12-31T12:09:51.207Z,110.70
2018-12-31T12:12:20.416Z,104.03
2018-12-31T12:14:49.220Z,91.73
2018-12-31T12:17:18.127Z,87.13
2018-12-31T12:19:47.415Z,89.87
2018-12-31T12:22:16.293Z,91.77
2018-12-31T12:24:45.587Z,95.60
2018-12-31T12:27:14.642Z,79.27
2018-12-31T12:29:43.448Z,91.87
2018-12-31T12:32:12.264Z,93.70
2018-12-31T12:34:41.355Z,87.50
2018-12-31T12:37:10.748Z,97.43
2018-12-31T12:39:39.936Z,103.30
2018-12-31T12:42:08.834Z,94.77
2018-12-31T12:44:38.125Z,80.10
2018-12-31T12:47:08.297Z,102.67
2018-12-31T12:49:37.789Z,77.73
2018-12-31T12:52:06.680Z,79.87
2018-12-31T12:54:36.267Z,89.83
2018-12-31T12:57:05.281Z,92.00
2018-12-31T12:59:34.230Z,96.87
2018-12-31T13:02:03.474Z,93.60
2018-12-31T13:04:32.418Z,81.43
2018-12-31T13:07:01.303Z,91.30
2018-12-31T13:09:30.468Z,89.17
2018-12-31T13:11:59.821Z,93.17
2018-12-31T13:14:28.639Z,75.47
2018-12-31T13:16:57.596Z,94.13
2018-12-31T13:19:26.457Z,77.60
2018-12-31T13:21:55.510Z,73.80
2018-12-31T13:24:25.062Z,71.57
2018-12-31T13:26:54.213Z,71.90
2018-12-31T13:29:23.360Z,69.60
2018-12-31T13:31:52.713Z,80.93
2018-12-31T13:34:21.563Z,71.97
2018-12-31T13:36:50.351Z,67.33
2018-12-31T13:39:19.266Z,82.67
2018-12-31T13:41:48.059Z,69.90
2018-12-31T13:44:16.928Z,67.67
2018-12-31T13:46:45.740Z,64.47
2018-12-31T13:49:14.959Z,61.07
2018-12-31T13:51:44.154Z,65.73
2018-12-31T13:54:13.968Z,72.40
2018-12-31T13:56:42.804Z,68.13
2018-12-31T13:59:11.641Z,75.80
2018-12-31T14:01:40.548Z,60.47
2018-12-31T14:04:09.659Z,81.83
2018-12-31T14:06:38.781Z,71.80
2018-12-31T14:09:08.085Z,76.87
2018-12-31T14:11:39.091Z,65.87
2018-12-31T14:14:08.701Z,56.93
2018-12-31T14:16:37.524Z,59.20
2018-12-31T14:19:06.716Z,65.90
2018-12-31T14:21:35.893Z,59.87
2018-12-31T14:24:04.755Z,73.43
2018-12-31T14:26:33.942Z,69.43
2018-12-31T14:29:03.322Z,66.23
2018-12-31T14:31:32.124Z,66.20
2018-12-31T14:34:01.026Z,67.73
2018-12-31T14:36:33.312Z,58.57
2018-12-31T14:39:02.374Z,70.93
2018-12-31T14:41:31.490Z,72.87
2018-12-31T14:44:00.623Z,63.80
2018-12-31T14:46:29.423Z,58.47
2018-12-31T14:48:58.523Z,70.67
2018-12-31T14:51:27.492Z,73.77
2018-12-31T14:53:56.386Z,62.87
2018-12-31T14:56:25.291Z,68.30
2018-12-31T14:58:54.196Z,60.90
2018-12-31T15:01:23.521Z,59.10
2018-12-31T15:03:52.617Z,51.90
2018-12-31T15:06:21.473Z,71.90
2018-12-31T15:08:50.691Z,73.50
2018-12-31T15:11:19.796Z,58.47
2018-12-31T15:13:48.601Z,61.60
2018-12-31T15:16:17.469Z,60.47
2018-12-31T15:18:46.450Z,83.20
2018-12-31T15:21:15.387Z,69.83
2018-12-31T15:23:44.533Z,75.80
2018-12-31T15:26:13.408Z,72.37
2018-12-31T15:28:43.063Z,84.67
2018-12-31T15:31:11.887Z,85.43
2018-12-31T15:33:40.780Z,70.47
2018-12-31T15:36:09.593Z,68.03
2018-12-31T15:38:38.408Z,91.73
2018-12-31T15:41:07.815Z,75.80
2018-12-31T15:43:36.683Z,73.77
2018-12-31T15:46:05.816Z,75.90
2018-12-31T15:48:34.791Z,76.97
2018-12-31T15:51:03.864Z,78.70
2018-12-31T15:53:32.934Z,71.20
2018-12-31T15:56:02.034Z,68.87
2018-12-31T15:58:31.159Z,65.03
2018-12-31T16:00:59.964Z,66.83
2018-12-31T16:03:28.807Z,86.67
2018-12-31T16:05:58.305Z,76.10
2018-12-31T16:08:27.591Z,85.53
2018-12-31T16:10:56.455Z,82.30
2018-12-31T16:13:25.712Z,72.83
2018-12-31T16:15:54.630Z,78.10
2018-12-31T16:18:23.845Z,73.20
2018-12-31T16:20:52.707Z,75.00
2018-12-31T16:23:21.595Z,67.70
2018-12-31T16:25:50.695Z,64.97
2018-12-31T16:28:19.980Z,98.70
2018-12-31T16:30:49.843Z,86.90
2018-12-31T16:33:19.561Z,82.87
2018-12-31T16:35:48.554Z,98.00
2018-12-31T16:38:17.662Z,74.27
2018-12-31T16:40:46.542Z,67.33
2018-12-31T16:43:15.935Z,91.63
2018-12-31T16:45:44.938Z,75.73
2018-12-31T16:48:13.795Z,71.67
2018-12-31T16:50:42.634Z,92.67
2018-12-31T16:53:11.567Z,81.13
2018-12-31T16:55:41.219Z,70.67
2018-12-31T16:58:10.073Z,68.00
2018-12-31T17:00:39.073Z,84.63
2018-12-31T17:03:08.313Z,86.63
2018-12-31T17:05:37.256Z,67.57
2018-12-31T17:08:06.602Z,76.47
2018-12-31T17:10:35.959Z,99.47
2018-12-31T17:13:04.755Z,91.07
2018-12-31T17:15:33.578Z,84.47
2018-12-31T17:18:02.423Z,86.87
2018-12-31T17:20:31.358Z,84.33
2018-12-31T17:23:00.151Z,83.23
2018-12-31T17:25:29.466Z,86.97
2018-12-31T17:27:58.504Z,85.80
2018-12-31T17:30:27.571Z,84.57
2018-12-31T17:32:56.395Z,88.67
2018-12-31T17:35:25.217Z,79.27
2018-12-31T17:37:54.045Z,88.07
2018-12-31T17:40:22.925Z,89.97
2018-12-31T17:42:51.981Z,86.23
2018-12-31T17:45:23.190Z,86.70
2018-12-31T17:47:51.920Z,79.67
2018-12-31T17:50:21.231Z,78.97
2018-12-31T17:52:50.743Z,87.10
2018-12-31T17:55:19.884Z,83.07
2018-12-31T17:57:48.762Z,71.93
2018-12-31T18:00:17.733Z,93.17
2018-12-31T18:02:46.691Z,84.27
2018-12-31T18:05:15.483Z,94.67
2018-12-31T18:07:44.421Z,88.83
2018-12-31T18:10:13.394Z,81.17
2018-12-31T18:12:42.264Z,83.33
2018-12-31T18:15:11.445Z,110.83
2018-12-31T18:17:40.246Z,113.20
2018-12-31T18:20:10.186Z,111.23
2018-12-31T18:22:39.407Z,98.57
2018-12-31T18:25:08.586Z,92.70
2018-12-31T18:27:37.423Z,102.43
2018-12-31T18:30:07.620Z,117.17
2018-12-31T18:32:36.424Z,100.67
2018-12-31T18:35:05.352Z,99.17
2018-12-31T18:37:41.486Z,88.53
2018-12-31T18:40:05.514Z,94.43
2018-12-31T18:42:34.451Z,95.23
2018-12-31T18:45:03.339Z,91.43
2018-12-31T18:47:32.135Z,93.83
2018-12-31T18:50:01.319Z,97.57
2018-12-31T18:52:30.115Z,100.23
2018-12-31T18:54:58.961Z,93.77
2018-12-31T18:57:27.831Z,94.63
2018-12-31T18:59:56.626Z,97.90
2018-12-31T19:02:26.104Z,89.50
2018-12-31T19:04:55.153Z,93.97
2018-12-31T19:07:24.265Z,100.80
2018-12-31T19:09:53.461Z,91.43
2018-12-31T19:12:22.359Z,97.90
2018-12-31T19:14:51.294Z,100.30
2018-12-31T19:17:20.294Z,111.27
2018-12-31T19:19:49.279Z,92.00
2018-12-31T19:22:18.227Z,100.70
2018-12-31T19:24:47.243Z,132.43
2018-12-31T19:27:16.747Z,117.77
2018-12-31T19:29:45.671Z,104.57
2018-12-31T19:32:15.090Z,112.37
2018-12-31T19:34:44.310Z,116.10
2018-12-31T19:37:13.550Z,109.50
2018-12-31T19:39:42.752Z,116.23
2018-12-31T19:42:11.852Z,98.90
2018-12-31T19:44:40.955Z,96.40
2018-12-31T19:47:09.809Z,113.97
2018-12-31T19:49:39.066Z,108.57
2018-12-31T19:52:08.709Z,122.77
2018-12-31T19:54:37.875Z,107.50
2018-12-31T19:57:07.092Z,115.73
2018-12-31T19:59:36.005Z,121.00
2018-12-31T20:02:05.539Z,110.23
2018-12-31T20:04:34.991Z,112.70
2018-12-31T20:07:03.788Z,112.57
2018-12-31T20:09:32.610Z,96.33
2018-12-31T20:12:01.733Z,114.10
2018-12-31T20:14:30.532Z,89.87
2018-12-31T20:16:59.404Z,104.67
2018-12-31T20:19:28.231Z,96.00
2018-12-31T20:21:57.385Z,108.63
2018-12-31T20:24:26.553Z,113.00
2018-12-31T20:26:55.451Z,100.13
2018-12-31T20:29:24.617Z,107.40
2018-12-31T20:31:53.806Z,99.60
2018-12-31T20:34:22.687Z,102.17
2018-12-31T20:36:51.564Z,105.03
2018-12-31T20:39:20.390Z,115.20
2018-12-31T20:41:49.439Z,112.20
2018-12-31T20:44:18.410Z,117.87
2018-12-31T20:46:47.248Z,116.33
2018-12-31T20:49:17.039Z,112.73
2018-12-31T20:51:46.280Z,100.53
2018-12-31T20:54:15.195Z,86.07
2018-12-31T20:56:44.084Z,93.97
2018-12-31T20:59:13.188Z,117.07
2018-12-31T21:01:42.083Z,84.77
2018-12-31T21:04:10.947Z,80.67
2018-12-31T21:06:39.870Z,69.17
2018-12-31T21:09:09.079Z,83.83
2018-12-31T21:11:38.310Z,76.33
2018-12-31T21:14:07.157Z,76.80
2018-12-31T21:16:35.965Z,71.57
2018-12-31T21:19:04.934Z,76.73
2018-12-31T21:21:33.824Z,77.50
2018-12-31T21:24:02.796Z,71.47
2018-12-31T21:26:31.728Z,79.87
2018-12-31T21:29:00.559Z,62.20
2018-12-31T21:31:29.729Z,66.20
2018-12-31T21:33:58.998Z,65.00
2018-12-31T21:36:28.125Z,70.63
2018-12-31T21:38:57.054Z,72.53
2018-12-31T21:41:25.862Z,64.93
2018-12-31T21:43:54.701Z,65.00
2018-12-31T21:46:23.572Z,57.00
2018-12-31T21:48:52.384Z,64.97
2018-12-31T21:51:21.511Z,69.90
2018-12-31T21:53:50.392Z,69.50
2018-12-31T21:56:19.286Z,63.57
2018-12-31T21:58:48.091Z,66.07
2018-12-31T22:01:17.354Z,78.07
2018-12-31T22:03:46.604Z,74.53
2018-12-31T22:06:15.508Z,79.33
2018-12-31T22:08:44.333Z,115.63
2018-12-31T22:11:13.262Z,82.30
2018-12-31T22:13:42.088Z,102.67
2018-12-31T22:16:10.923Z,81.70
2018-12-31T22:18:39.836Z,78.33
2018-12-31T22:21:08.978Z,80.13
2018-12-31T22:23:37.842Z,89.80
2018-12-31T22:26:06.694Z,69.87
2018-12-31T22:28:35.630Z,74.63
2018-12-31T22:31:04.419Z,78.37
2018-12-31T22:33:33.472Z,72.37
2018-12-31T22:36:02.333Z,71.90
2018-12-31T22:38:31.128Z,72.50
2018-12-31T22:40:59.942Z,86.43
2018-12-31T22:43:29.079Z,71.17
2018-12-31T22:45:58.401Z,86.17
2018-12-31T22:48:27.260Z,83.30
2018-12-31T22:50:56.197Z,81.53
2018-12-31T22:53:25.771Z,93.67
2018-12-31T22:55:54.850Z,80.97
2018-12-31T22:58:23.645Z,80.60
2018-12-31T23:00:52.514Z,127.53
2018-12-31T23:03:21.524Z,578.07
2018-12-31T23:05:50.438Z,330.63
2018-12-31T23:08:19.681Z,486.10
2018-12-31T23:10:48.561Z,392.23
2018-12-31T23:13:17.829Z,382.47
2018-12-31T23:15:47.474Z,383.03
2018-12-31T23:18:16.378Z,423.07
2018-12-31T23:20:45.704Z,370.23
2018-12-31T23:23:14.617Z,501.13
2018-12-31T23:25:43.866Z,325.87
2018-12-31T23:28:12.743Z,278.70
2018-12-31T23:30:41.636Z,323.10
2018-12-31T23:33:10.924Z,277.37
2018-12-31T23:35:39.775Z,274.03
2018-12-31T23:38:08.585Z,279.67
2018-12-31T23:40:37.772Z,236.63
2018-12-31T23:43:06.900Z,219.23
2018-12-31T23:45:36.251Z,245.57
2018-12-31T23:48:05.260Z,230.50
2018-12-31T23:50:34.130Z,212.43
2018-12-31T23:53:02.980Z,198.70
2018-12-31T23:55:32.164Z,179.90
2018-12-31T23:58:01.744Z,187.27
